createdAt,value
2023-06-16T00:05:02.392Z,98227.41
2023-06-16T00:10:08.726Z,98230.66
2023-06-16T00:15:14.278Z,98219.75
2023-06-16T00:20:21.458Z,98220.94
2023-06-16T00:25:26.015Z,98230.28
2023-06-16T00:30:32.104Z,98227.56
2023-06-16T00:35:37.882Z,98224.84
2023-06-16T00:40:42.574Z,98223.22
2023-06-16T00:45:49.924Z,98215.75
2023-06-16T00:50:56.170Z,98224.22
2023-06-16T00:56:01.084Z,98215.41
2023-06-16T01:01:06.691Z,98200.88
2023-06-16T01:06:26.908Z,98209.59
2023-06-16T01:11:41.947Z,98208.53
2023-06-16T01:16:49.049Z,98209.69
2023-06-16T01:22:07.570Z,98211.03
2023-06-16T01:27:18.436Z,98205.84
2023-06-16T01:32:23.338Z,98213.25
2023-06-16T01:37:29.430Z,98200.88
2023-06-16T01:42:36.394Z,98210.84
2023-06-16T01:47:41.358Z,98204.06
2023-06-16T01:52:45.839Z,98202.75
2023-06-16T01:57:54.571Z,98195.25
2023-06-16T02:03:07.660Z,98202.63
2023-06-16T02:08:17.701Z,98191.22
2023-06-16T02:13:23.378Z,98192.81
2023-06-16T02:18:29.409Z,98189.78
2023-06-16T02:23:34.264Z,98196.31
2023-06-16T02:28:39.830Z,98187.19
2023-06-16T02:33:45.423Z,98191.78
2023-06-16T02:38:49.730Z,98201.41
2023-06-16T02:43:55.628Z,98195.72
2023-06-16T02:49:00.640Z,98189.06
2023-06-16T02:54:05.814Z,98185.13
2023-06-16T02:59:12.334Z,98189.81
2023-06-16T03:04:18.403Z,98185.69
2023-06-16T03:09:49.326Z,98184.03
2023-06-16T03:14:56.488Z,98187.53
2023-06-16T03:20:01.155Z,98185.75
2023-06-16T03:25:22.273Z,98191.56
2023-06-16T03:30:28.852Z,98191.13
2023-06-16T03:35:39.185Z,98198.88
2023-06-16T03:40:48.699Z,98194.69
2023-06-16T03:45:54.732Z,98195.19
2023-06-16T03:51:00.561Z,98208.25
2023-06-16T03:56:05.117Z,98204.19
2023-06-16T04:01:12.100Z,98206.44
2023-06-16T04:06:16.847Z,98212.75
2023-06-16T04:11:22.114Z,98217.44
2023-06-16T04:16:28.310Z,98226.50
2023-06-16T04:21:35.404Z,98223.91
2023-06-16T04:26:42.869Z,98220.31
2023-06-16T04:31:52.192Z,98222.13
2023-06-16T04:36:58.457Z,98223.69
2023-06-16T04:42:10.524Z,98215.63
2023-06-16T04:47:18.726Z,98219.81
2023-06-16T04:52:24.277Z,98216.31
2023-06-16T04:57:28.872Z,98217.66
2023-06-16T05:02:36.289Z,98211.47
2023-06-16T05:07:40.647Z,98207.34
2023-06-16T05:12:45.153Z,98204.75
2023-06-16T05:17:50.923Z,98209.41
2023-06-16T05:22:55.352Z,98205.97
2023-06-16T05:27:59.700Z,98208.16
2023-06-16T05:33:05.858Z,98212.59
2023-06-16T05:38:11.088Z,98208.88
2023-06-16T05:43:15.362Z,98210.66
2023-06-16T05:48:21.275Z,98207.06
2023-06-16T05:53:25.848Z,98219.50
2023-06-16T05:58:30.488Z,98214.94
2023-06-16T06:03:36.908Z,98215.41
2023-06-16T06:08:43.607Z,98213.84
2023-06-16T06:13:50.135Z,98216.09
2023-06-16T06:18:56.056Z,98222.22
2023-06-16T06:24:03.018Z,98217.22
2023-06-16T06:29:07.886Z,98212.41
2023-06-16T06:34:13.995Z,98221.28
2023-06-16T06:39:18.578Z,98217.06
2023-06-16T06:44:23.155Z,98207.97
2023-06-16T06:49:29.879Z,98216.63
2023-06-16T06:54:34.354Z,98218.34
2023-06-16T06:59:40.123Z,98210.09
2023-06-16T07:04:46.193Z,98212.97
2023-06-16T07:09:50.667Z,98210.31
2023-06-16T07:14:55.195Z,98211.75
2023-06-16T07:20:00.788Z,98208.06
2023-06-16T07:25:05.747Z,98210.22
2023-06-16T07:30:11.360Z,98207.72
2023-06-16T07:35:17.033Z,98206.78
2023-06-16T07:40:21.754Z,98207.94
2023-06-16T07:45:26.568Z,98200.47
2023-06-16T07:50:32.744Z,98203.22
2023-06-16T07:55:37.167Z,98198.50
2023-06-16T08:00:41.542Z,98201.75
2023-06-16T08:05:48.081Z,98201.72
2023-06-16T08:10:52.330Z,98205.00
2023-06-16T08:15:57.608Z,98195.47
2023-06-16T08:21:07.374Z,98203.38
2023-06-16T08:26:13.251Z,98209.06
2023-06-16T08:31:19.097Z,98211.56
2023-06-16T08:36:26.101Z,98204.31
2023-06-16T08:41:32.577Z,98206.63
2023-06-16T08:46:37.816Z,98193.94
2023-06-16T08:51:49.129Z,98199.13
2023-06-16T08:56:54.151Z,98202.94
2023-06-16T09:02:00.444Z,98189.44
2023-06-16T09:07:07.168Z,98193.50
2023-06-16T09:12:12.899Z,98192.34
2023-06-16T09:17:19.519Z,98189.47
2023-06-16T09:22:28.193Z,98186.66
2023-06-16T09:27:45.686Z,98189.34
2023-06-16T09:32:53.209Z,98178.47
2023-06-16T09:38:02.022Z,98173.50
2023-06-16T09:43:11.808Z,98177.47
2023-06-16T09:48:16.277Z,98177.41
2023-06-16T09:53:24.845Z,98173.56
2023-06-16T09:58:41.280Z,98175.84
2023-06-16T10:03:52.245Z,98167.47
2023-06-16T10:08:59.134Z,98161.59
2023-06-16T10:14:06.623Z,98161.03
2023-06-16T10:19:12.372Z,98160.91
2023-06-16T10:24:19.165Z,98155.22
2023-06-16T10:29:27.282Z,98147.75
2023-06-16T10:34:32.016Z,98154.72
2023-06-16T10:39:45.831Z,98151.22
2023-06-16T10:44:50.086Z,98137.59
2023-06-16T10:49:59.005Z,98144.06
2023-06-16T11:00:31.626Z,98138.56
2023-06-16T11:05:40.016Z,98137.88
2023-06-16T11:10:51.761Z,98131.25
2023-06-16T11:15:58.617Z,98128.34
2023-06-16T11:21:06.316Z,98132.53
2023-06-16T11:26:13.295Z,98121.81
2023-06-16T11:31:22.358Z,98132.78
2023-06-16T11:36:27.396Z,98111.34
2023-06-16T11:41:32.481Z,98108.06
2023-06-16T11:46:38.334Z,98096.06
2023-06-16T11:51:42.634Z,98098.72
2023-06-16T11:56:51.435Z,98113.03
2023-06-16T12:01:58.943Z,98104.78
2023-06-16T12:07:05.869Z,98099.16
2023-06-16T12:12:11.742Z,98105.31
2023-06-16T12:17:17.623Z,98113.34
2023-06-16T12:22:23.608Z,98106.34
2023-06-16T12:27:28.285Z,98116.19
2023-06-16T12:32:35.731Z,98104.41
2023-06-16T12:37:43.060Z,98109.59
2023-06-16T12:42:47.785Z,98097.38
2023-06-16T12:47:53.378Z,98099.94
2023-06-16T12:52:58.124Z,98095.34
2023-06-16T12:58:02.324Z,98102.25
2023-06-16T13:03:07.773Z,98091.59
2023-06-16T13:08:12.084Z,98076.09
2023-06-16T13:13:16.686Z,98091.44
2023-06-16T13:18:22.330Z,98075.91
2023-06-16T13:23:27.290Z,98097.00
2023-06-16T13:28:31.517Z,98106.97
2023-06-16T13:33:38.638Z,98098.22
2023-06-16T13:38:44.891Z,98090.19
2023-06-16T13:43:52.943Z,98079.69
2023-06-16T13:48:58.898Z,98076.53
2023-06-16T13:54:05.279Z,98060.19
2023-06-16T13:59:09.689Z,98071.75
2023-06-16T14:04:15.414Z,98057.69
2023-06-16T14:09:19.733Z,98070.97
2023-06-16T14:14:24.015Z,98064.78
2023-06-16T14:19:34.570Z,98053.13
2023-06-16T14:24:39.893Z,98064.72
2023-06-16T14:29:44.311Z,98055.00
2023-06-16T14:34:50.111Z,98035.41
2023-06-16T14:39:54.402Z,98033.50
2023-06-16T14:44:58.713Z,98028.88
2023-06-16T14:50:04.455Z,98025.47
2023-06-16T14:55:10.214Z,98008.34
2023-06-16T15:00:16.403Z,97996.44
2023-06-16T15:05:22.973Z,97995.31
2023-06-16T15:10:27.283Z,98017.53
2023-06-16T15:15:32.063Z,98008.44
2023-06-16T15:20:37.925Z,98000.38
2023-06-16T15:25:42.322Z,98001.94
2023-06-16T15:30:47.149Z,97988.25
2023-06-16T15:35:52.771Z,97985.59
2023-06-16T15:40:57.206Z,97994.31
2023-06-16T15:46:02.405Z,98001.03
2023-06-16T15:51:08.743Z,98005.81
2023-06-16T15:56:13.025Z,97985.44
2023-06-16T16:01:17.938Z,97973.19
2023-06-16T16:06:23.597Z,97955.31
2023-06-16T16:11:28.250Z,97956.88
2023-06-16T16:16:32.989Z,97955.84
2023-06-16T16:21:40.220Z,97954.00
2023-06-16T16:26:44.603Z,97939.59
2023-06-16T16:31:49.329Z,97944.75
2023-06-16T16:36:55.338Z,97952.47
2023-06-16T16:42:00.380Z,97954.59
2023-06-16T16:47:05.304Z,97954.03
2023-06-16T16:52:11.536Z,97951.34
2023-06-16T16:57:16.570Z,97952.06
2023-06-16T17:02:20.929Z,97964.22
2023-06-16T17:07:26.475Z,97952.41
2023-06-16T17:12:30.841Z,97949.22
2023-06-16T17:17:35.095Z,97954.22
2023-06-16T17:22:41.257Z,97957.34
2023-06-16T17:27:58.259Z,97961.03
2023-06-16T17:33:04.371Z,97947.94
2023-06-16T17:38:09.989Z,97947.22
2023-06-16T17:43:14.546Z,97953.00
2023-06-16T17:48:18.716Z,97956.69
2023-06-16T17:53:24.414Z,97948.66
2023-06-16T17:58:28.998Z,97953.03
2023-06-16T18:03:34.141Z,97949.06
2023-06-16T18:08:40.262Z,97945.09
2023-06-16T18:13:44.714Z,97949.16
2023-06-16T18:18:49.351Z,97955.16
2023-06-16T18:23:55.786Z,97954.91
2023-06-16T18:29:01.359Z,97963.53
2023-06-16T18:34:06.308Z,97971.50
2023-06-16T18:39:16.091Z,97960.38
2023-06-16T18:44:20.837Z,97965.66
2023-06-16T18:49:25.714Z,97963.97
2023-06-16T18:54:32.222Z,97967.09
2023-06-16T18:59:36.949Z,97970.44
2023-06-16T19:04:42.184Z,97970.28
2023-06-16T19:09:48.335Z,97973.38
2023-06-16T19:14:52.903Z,97979.78
2023-06-16T19:19:57.718Z,97980.72
2023-06-16T19:25:03.577Z,97980.47
2023-06-16T19:30:09.137Z,97988.50
2023-06-16T19:35:14.023Z,97997.34
2023-06-16T19:40:20.237Z,97994.22
2023-06-16T19:45:25.029Z,97990.97
2023-06-16T19:50:29.259Z,97994.63
2023-06-16T19:55:45.246Z,97987.38
2023-06-16T20:00:53.818Z,97986.94
2023-06-16T20:05:58.306Z,97977.50
2023-06-16T20:11:03.904Z,97976.31
2023-06-16T20:16:08.817Z,97980.59
2023-06-16T20:21:14.171Z,97984.31
2023-06-16T20:26:19.802Z,97983.72
2023-06-16T20:31:24.778Z,97976.34
2023-06-16T20:36:30.393Z,97971.66
2023-06-16T20:41:36.350Z,97965.13
2023-06-16T20:46:40.922Z,97966.28
2023-06-16T20:51:45.931Z,97971.47
2023-06-16T20:56:51.404Z,97969.53
2023-06-16T21:01:58.869Z,97966.88
2023-06-16T21:07:04.552Z,97967.34
2023-06-16T21:12:11.912Z,97965.94
2023-06-16T21:17:16.632Z,97969.13
2023-06-16T21:22:21.408Z,97963.78
2023-06-16T21:27:31.691Z,97975.97
2023-06-16T21:32:35.899Z,97965.28
2023-06-16T21:37:41.634Z,97969.72
2023-06-16T21:42:47.305Z,97963.94
2023-06-16T21:47:51.956Z,97968.50
2023-06-16T21:52:56.606Z,97967.78
2023-06-16T21:58:02.336Z,97964.41
2023-06-16T22:03:06.748Z,97959.25
2023-06-16T22:08:11.433Z,97960.38
2023-06-16T22:13:18.103Z,97953.31
2023-06-16T22:18:24.539Z,97948.38
2023-06-16T22:23:29.235Z,97951.09
2023-06-16T22:28:35.758Z,97936.41
2023-06-16T22:33:40.173Z,97936.88
2023-06-16T22:38:44.562Z,97933.16
2023-06-16T22:43:50.406Z,97932.34
2023-06-16T22:48:54.908Z,97942.19
2023-06-16T22:53:59.569Z,97940.97
2023-06-16T22:59:05.321Z,97939.03
2023-06-16T23:04:09.535Z,97940.22
2023-06-16T23:09:13.997Z,97939.19
2023-06-16T23:14:20.717Z,97939.47
2023-06-16T23:19:25.194Z,97934.13
2023-06-16T23:24:31.001Z,97932.94
2023-06-16T23:29:36.920Z,97943.00
2023-06-16T23:34:41.149Z,97938.19
2023-06-16T23:39:46.169Z,97934.34
2023-06-16T23:44:54.772Z,97932.19
2023-06-16T23:49:59.205Z,97927.59
2023-06-16T23:55:03.884Z,97921.34
